Manning, Oregon
Current Conditions -  °F | °C
As of 3:53 AM on Thursday 27 Nov 2014 (Local Time) from KHIO Reporting Station
Overcast Overcast  
Wind Chill: 59°   Ceiling: 4400
Heat Index: 59°   Visibility: 10mi
Dew Point: 45°   Wind: 13mph
Humidity: 60%   Direction: 190°S
Pressure: 29.95"   Gusts: 23mph
Location:  45.66°N, 123.16°W
Report Text: KHIO 271153Z AUTO 19011G20KT 10SM OVC044 15/07 A2995 RMK AO2 SLP142 T01500072 10161 20133 58003
Loading
Personal Weather Stations






























Interactive Weather Map New forecast layout! Learn more

10-Day Weather Forecast

Advertisements
Track Severe Weather on mobile